sensor_id;sensor_type;location;lat;lon;timestamp;temperature;humidity
79750;SHT31;69233;51.968;5.658;2024-01-07T00:01:11;5.7;66.6
79750;SHT31;69233;51.968;5.658;2024-01-07T00:03:42;5.7;66.9
79750;SHT31;69233;51.968;5.658;2024-01-07T00:06:11;5.7;66.1
79750;SHT31;69233;51.968;5.658;2024-01-07T00:08:40;5.7;67.3
79750;SHT31;69233;51.968;5.658;2024-01-07T00:11:09;5.7;67.3
79750;SHT31;69233;51.968;5.658;2024-01-07T00:13:37;5.7;67.1
79750;SHT31;69233;51.968;5.658;2024-01-07T00:16:07;5.7;67.7
79750;SHT31;69233;51.968;5.658;2024-01-07T00:18:35;5.7;67.3
79750;SHT31;69233;51.968;5.658;2024-01-07T00:21:05;5.6;66.9
79750;SHT31;69233;51.968;5.658;2024-01-07T00:23:34;5.6;67.4
79750;SHT31;69233;51.968;5.658;2024-01-07T00:26:03;5.6;67.5
79750;SHT31;69233;51.968;5.658;2024-01-07T00:28:32;5.6;68.6
79750;SHT31;69233;51.968;5.658;2024-01-07T00:31:02;5.6;68.0
79750;SHT31;69233;51.968;5.658;2024-01-07T00:33:32;5.6;68.5
79750;SHT31;69233;51.968;5.658;2024-01-07T00:36:03;5.6;67.8
79750;SHT31;69233;51.968;5.658;2024-01-07T00:38:32;5.6;68.7
79750;SHT31;69233;51.968;5.658;2024-01-07T00:41:01;5.6;68.2
79750;SHT31;69233;51.968;5.658;2024-01-07T00:43:29;5.6;67.9
79750;SHT31;69233;51.968;5.658;2024-01-07T00:45:58;5.6;68.4
79750;SHT31;69233;51.968;5.658;2024-01-07T00:48:27;5.6;67.6
79750;SHT31;69233;51.968;5.658;2024-01-07T00:50:55;5.6;68.1
79750;SHT31;69233;51.968;5.658;2024-01-07T00:53:24;5.6;68.8
79750;SHT31;69233;51.968;5.658;2024-01-07T00:55:54;5.6;68.4
79750;SHT31;69233;51.968;5.658;2024-01-07T00:58:24;5.5;68.1
79750;SHT31;69233;51.968;5.658;2024-01-07T01:00:52;5.5;67.4
79750;SHT31;69233;51.968;5.658;2024-01-07T01:03:21;5.5;67.4
79750;SHT31;69233;51.968;5.658;2024-01-07T01:05:49;5.5;68.0
79750;SHT31;69233;51.968;5.658;2024-01-07T01:08:18;5.5;67.4
79750;SHT31;69233;51.968;5.658;2024-01-07T01:10:47;5.5;68.5
79750;SHT31;69233;51.968;5.658;2024-01-07T01:13:15;5.5;68.2
79750;SHT31;69233;51.968;5.658;2024-01-07T01:15:44;5.4;68.8
79750;SHT31;69233;51.968;5.658;2024-01-07T01:18:13;5.4;69.4
79750;SHT31;69233;51.968;5.658;2024-01-07T01:20:41;5.4;68.3
79750;SHT31;69233;51.968;5.658;2024-01-07T01:23:10;5.4;69.4
79750;SHT31;69233;51.968;5.658;2024-01-07T01:25:38;5.4;68.9
79750;SHT31;69233;51.968;5.658;2024-01-07T01:28:07;5.4;69.2
79750;SHT31;69233;51.968;5.658;2024-01-07T01:30:36;5.5;69.4
79750;SHT31;69233;51.968;5.658;2024-01-07T01:33:04;5.5;69.9
79750;SHT31;69233;51.968;5.658;2024-01-07T01:35:33;5.5;68.5
79750;SHT31;69233;51.968;5.658;2024-01-07T01:38:01;5.5;69.4
79750;SHT31;69233;51.968;5.658;2024-01-07T01:40:30;5.5;69.2
79750;SHT31;69233;51.968;5.658;2024-01-07T01:42:58;5.5;69.3
79750;SHT31;69233;51.968;5.658;2024-01-07T01:45:27;5.5;69.1
79750;SHT31;69233;51.968;5.658;2024-01-07T01:47:56;5.5;68.3
79750;SHT31;69233;51.968;5.658;2024-01-07T01:50:24;5.5;69.0
79750;SHT31;69233;51.968;5.658;2024-01-07T01:52:54;5.5;68.1
79750;SHT31;69233;51.968;5.658;2024-01-07T01:55:23;5.5;67.5
79750;SHT31;69233;51.968;5.658;2024-01-07T01:57:53;5.5;68.4
79750;SHT31;69233;51.968;5.658;2024-01-07T02:00:22;5.5;68.1
79750;SHT31;69233;51.968;5.658;2024-01-07T02:02:53;5.5;68.4
79750;SHT31;69233;51.968;5.658;2024-01-07T02:05:22;5.5;67.6
79750;SHT31;69233;51.968;5.658;2024-01-07T02:07:51;5.5;68.5
79750;SHT31;69233;51.968;5.658;2024-01-07T02:10:21;5.5;68.9
79750;SHT31;69233;51.968;5.658;2024-01-07T02:12:50;5.5;69.8
79750;SHT31;69233;51.968;5.658;2024-01-07T02:15:18;5.5;67.4
79750;SHT31;69233;51.968;5.658;2024-01-07T02:17:47;5.5;67.1
79750;SHT31;69233;51.968;5.658;2024-01-07T02:20:16;5.5;69.0
79750;SHT31;69233;51.968;5.658;2024-01-07T02:22:44;5.5;68.3
79750;SHT31;69233;51.968;5.658;2024-01-07T02:25:13;5.5;67.5
79750;SHT31;69233;51.968;5.658;2024-01-07T02:27:41;5.5;68.4
79750;SHT31;69233;51.968;5.658;2024-01-07T02:30:11;5.5;67.9
79750;SHT31;69233;51.968;5.658;2024-01-07T02:32:39;5.5;67.5
79750;SHT31;69233;51.968;5.658;2024-01-07T02:35:08;5.5;67.8
79750;SHT31;69233;51.968;5.658;2024-01-07T02:37:39;5.5;67.7
79750;SHT31;69233;51.968;5.658;2024-01-07T02:40:08;5.5;68.1
79750;SHT31;69233;51.968;5.658;2024-01-07T02:42:37;5.5;68.2
79750;SHT31;69233;51.968;5.658;2024-01-07T02:45:06;5.5;68.0
79750;SHT31;69233;51.968;5.658;2024-01-07T02:47:35;5.4;68.1
79750;SHT31;69233;51.968;5.658;2024-01-07T02:50:03;5.4;68.3
79750;SHT31;69233;51.968;5.658;2024-01-07T02:52:32;5.4;69.2
79750;SHT31;69233;51.968;5.658;2024-01-07T02:55:00;5.4;68.9
79750;SHT31;69233;51.968;5.658;2024-01-07T02:57:29;5.4;67.4
79750;SHT31;69233;51.968;5.658;2024-01-07T02:59:58;5.4;68.9
79750;SHT31;69233;51.968;5.658;2024-01-07T03:02:27;5.4;68.1
79750;SHT31;69233;51.968;5.658;2024-01-07T03:04:56;5.4;69.1
79750;SHT31;69233;51.968;5.658;2024-01-07T03:07:24;5.4;68.8
79750;SHT31;69233;51.968;5.658;2024-01-07T03:09:53;5.4;69.0
79750;SHT31;69233;51.968;5.658;2024-01-07T03:12:23;5.4;69.1
79750;SHT31;69233;51.968;5.658;2024-01-07T03:14:52;5.4;69.2
79750;SHT31;69233;51.968;5.658;2024-01-07T03:17:21;5.3;68.4
79750;SHT31;69233;51.968;5.658;2024-01-07T03:19:50;5.3;68.6
79750;SHT31;69233;51.968;5.658;2024-01-07T03:22:18;5.3;68.3
79750;SHT31;69233;51.968;5.658;2024-01-07T03:24:47;5.3;68.5
79750;SHT31;69233;51.968;5.658;2024-01-07T03:27:15;5.3;69.2
79750;SHT31;69233;51.968;5.658;2024-01-07T03:29:44;5.3;68.2
79750;SHT31;69233;51.968;5.658;2024-01-07T03:32:13;5.3;68.2
79750;SHT31;69233;51.968;5.658;2024-01-07T03:34:43;5.2;68.1
79750;SHT31;69233;51.968;5.658;2024-01-07T03:37:12;5.2;68.1
79750;SHT31;69233;51.968;5.658;2024-01-07T03:39:40;5.2;68.3
79750;SHT31;69233;51.968;5.658;2024-01-07T03:42:09;5.2;68.1
79750;SHT31;69233;51.968;5.658;2024-01-07T03:44:38;5.2;67.7
79750;SHT31;69233;51.968;5.658;2024-01-07T03:47:06;5.1;68.5
79750;SHT31;69233;51.968;5.658;2024-01-07T03:49:36;5.1;69.0
79750;SHT31;69233;51.968;5.658;2024-01-07T03:52:05;5.1;68.7
79750;SHT31;69233;51.968;5.658;2024-01-07T03:54:34;5.1;68.3
79750;SHT31;69233;51.968;5.658;2024-01-07T03:57:03;5.1;66.8
79750;SHT31;69233;51.968;5.658;2024-01-07T03:59:31;5.1;67.7
79750;SHT31;69233;51.968;5.658;2024-01-07T04:02:02;5.1;68.0
79750;SHT31;69233;51.968;5.658;2024-01-07T04:04:31;5.1;68.0
79750;SHT31;69233;51.968;5.658;2024-01-07T04:07:01;5.0;67.9
79750;SHT31;69233;51.968;5.658;2024-01-07T04:09:30;5.0;68.1
79750;SHT31;69233;51.968;5.658;2024-01-07T04:11:58;5.0;67.6
79750;SHT31;69233;51.968;5.658;2024-01-07T04:14:27;5.0;68.2
79750;SHT31;69233;51.968;5.658;2024-01-07T04:16:55;4.9;68.4
79750;SHT31;69233;51.968;5.658;2024-01-07T04:19:24;4.9;68.7
79750;SHT31;69233;51.968;5.658;2024-01-07T04:21:52;4.9;69.0
79750;SHT31;69233;51.968;5.658;2024-01-07T04:24:21;4.9;68.6
79750;SHT31;69233;51.968;5.658;2024-01-07T04:26:50;4.9;68.4
79750;SHT31;69233;51.968;5.658;2024-01-07T04:29:19;4.9;69.5
79750;SHT31;69233;51.968;5.658;2024-01-07T04:31:48;4.9;68.5
79750;SHT31;69233;51.968;5.658;2024-01-07T04:34:16;4.9;69.0
79750;SHT31;69233;51.968;5.658;2024-01-07T04:36:45;4.9;69.0
79750;SHT31;69233;51.968;5.658;2024-01-07T04:39:14;4.9;69.6
79750;SHT31;69233;51.968;5.658;2024-01-07T04:41:42;4.9;69.4
79750;SHT31;69233;51.968;5.658;2024-01-07T04:44:11;4.9;69.1
79750;SHT31;69233;51.968;5.658;2024-01-07T04:46:40;4.9;68.4
79750;SHT31;69233;51.968;5.658;2024-01-07T04:49:10;4.9;68.2
79750;SHT31;69233;51.968;5.658;2024-01-07T04:51:40;4.9;67.7
79750;SHT31;69233;51.968;5.658;2024-01-07T04:54:09;4.9;68.6
79750;SHT31;69233;51.968;5.658;2024-01-07T04:56:37;4.9;68.9
79750;SHT31;69233;51.968;5.658;2024-01-07T04:59:06;4.9;67.9
79750;SHT31;69233;51.968;5.658;2024-01-07T05:01:35;4.9;68.1
79750;SHT31;69233;51.968;5.658;2024-01-07T05:04:03;4.9;69.7
79750;SHT31;69233;51.968;5.658;2024-01-07T05:06:32;4.9;69.2
79750;SHT31;69233;51.968;5.658;2024-01-07T05:09:01;5.0;68.2
79750;SHT31;69233;51.968;5.658;2024-01-07T05:11:29;5.0;67.5
79750;SHT31;69233;51.968;5.658;2024-01-07T05:13:58;5.0;67.0
79750;SHT31;69233;51.968;5.658;2024-01-07T05:16:26;5.0;67.2
79750;SHT31;69233;51.968;5.658;2024-01-07T05:18:55;5.0;67.0
79750;SHT31;69233;51.968;5.658;2024-01-07T05:21:25;5.0;66.6
79750;SHT31;69233;51.968;5.658;2024-01-07T05:23:54;5.0;66.8
79750;SHT31;69233;51.968;5.658;2024-01-07T05:26:22;5.0;67.2
79750;SHT31;69233;51.968;5.658;2024-01-07T05:28:53;4.9;66.1
79750;SHT31;69233;51.968;5.658;2024-01-07T05:31:21;4.9;66.6
79750;SHT31;69233;51.968;5.658;2024-01-07T05:33:50;4.9;67.2
79750;SHT31;69233;51.968;5.658;2024-01-07T05:36:19;4.9;67.6
79750;SHT31;69233;51.968;5.658;2024-01-07T05:38:48;4.9;67.9
79750;SHT31;69233;51.968;5.658;2024-01-07T05:41:16;4.9;67.7
79750;SHT31;69233;51.968;5.658;2024-01-07T05:43:45;4.9;68.1
79750;SHT31;69233;51.968;5.658;2024-01-07T05:46:14;4.9;67.2
79750;SHT31;69233;51.968;5.658;2024-01-07T05:48:44;4.9;67.0
79750;SHT31;69233;51.968;5.658;2024-01-07T05:51:13;4.9;67.2
79750;SHT31;69233;51.968;5.658;2024-01-07T05:53:44;4.9;67.2
79750;SHT31;69233;51.968;5.658;2024-01-07T05:56:13;4.9;67.3
79750;SHT31;69233;51.968;5.658;2024-01-07T05:58:41;4.9;67.1
79750;SHT31;69233;51.968;5.658;2024-01-07T06:01:10;4.9;66.9
79750;SHT31;69233;51.968;5.658;2024-01-07T06:03:38;4.9;65.5
79750;SHT31;69233;51.968;5.658;2024-01-07T06:06:07;4.8;65.0
79750;SHT31;69233;51.968;5.658;2024-01-07T06:08:35;4.8;66.3
79750;SHT31;69233;51.968;5.658;2024-01-07T06:11:04;4.8;65.0
79750;SHT31;69233;51.968;5.658;2024-01-07T06:13:33;4.8;66.6
79750;SHT31;69233;51.968;5.658;2024-01-07T06:16:02;4.8;66.3
79750;SHT31;69233;51.968;5.658;2024-01-07T06:18:31;4.8;65.7
79750;SHT31;69233;51.968;5.658;2024-01-07T06:20:59;4.8;66.3
79750;SHT31;69233;51.968;5.658;2024-01-07T06:23:28;4.8;65.4
79750;SHT31;69233;51.968;5.658;2024-01-07T06:25:57;4.8;66.1
79750;SHT31;69233;51.968;5.658;2024-01-07T06:28:26;4.8;65.8
79750;SHT31;69233;51.968;5.658;2024-01-07T06:30:56;4.8;66.9
79750;SHT31;69233;51.968;5.658;2024-01-07T06:33:25;4.8;65.1
79750;SHT31;69233;51.968;5.658;2024-01-07T06:35:53;4.8;65.3
79750;SHT31;69233;51.968;5.658;2024-01-07T06:38:24;4.8;65.7
79750;SHT31;69233;51.968;5.658;2024-01-07T06:40:52;4.7;66.2
79750;SHT31;69233;51.968;5.658;2024-01-07T06:43:25;4.7;67.4
79750;SHT31;69233;51.968;5.658;2024-01-07T06:45:55;4.7;66.7
79750;SHT31;69233;51.968;5.658;2024-01-07T06:48:25;4.7;65.2
79750;SHT31;69233;51.968;5.658;2024-01-07T06:50:54;4.7;66.5
79750;SHT31;69233;51.968;5.658;2024-01-07T06:53:23;4.7;66.5
79750;SHT31;69233;51.968;5.658;2024-01-07T06:55:52;4.7;66.0
79750;SHT31;69233;51.968;5.658;2024-01-07T06:58:20;4.7;65.3
79750;SHT31;69233;51.968;5.658;2024-01-07T07:00:49;4.7;65.9
79750;SHT31;69233;51.968;5.658;2024-01-07T07:03:18;4.7;65.7
79750;SHT31;69233;51.968;5.658;2024-01-07T07:05:48;4.7;65.6
79750;SHT31;69233;51.968;5.658;2024-01-07T07:08:17;4.7;64.7
79750;SHT31;69233;51.968;5.658;2024-01-07T07:10:45;4.7;64.6
79750;SHT31;69233;51.968;5.658;2024-01-07T07:13:16;4.6;65.3
79750;SHT31;69233;51.968;5.658;2024-01-07T07:15:44;4.6;65.1
79750;SHT31;69233;51.968;5.658;2024-01-07T07:18:13;4.6;66.4
79750;SHT31;69233;51.968;5.658;2024-01-07T07:20:42;4.6;65.7
79750;SHT31;69233;51.968;5.658;2024-01-07T07:23:10;4.5;66.7
79750;SHT31;69233;51.968;5.658;2024-01-07T07:25:40;4.5;66.3
79750;SHT31;69233;51.968;5.658;2024-01-07T07:28:08;4.5;64.7
79750;SHT31;69233;51.968;5.658;2024-01-07T07:30:37;4.5;65.7
79750;SHT31;69233;51.968;5.658;2024-01-07T07:33:07;4.5;63.8
79750;SHT31;69233;51.968;5.658;2024-01-07T07:35:36;4.5;65.3
79750;SHT31;69233;51.968;5.658;2024-01-07T07:38:08;4.5;65.3
79750;SHT31;69233;51.968;5.658;2024-01-07T07:40:37;4.5;64.8
79750;SHT31;69233;51.968;5.658;2024-01-07T07:43:05;4.4;64.8
79750;SHT31;69233;51.968;5.658;2024-01-07T07:45:34;4.4;64.7
79750;SHT31;69233;51.968;5.658;2024-01-07T07:48:03;4.4;65.5
79750;SHT31;69233;51.968;5.658;2024-01-07T07:50:32;4.4;64.6
79750;SHT31;69233;51.968;5.658;2024-01-07T07:53:02;4.4;64.6
79750;SHT31;69233;51.968;5.658;2024-01-07T07:55:33;4.4;64.9
79750;SHT31;69233;51.968;5.658;2024-01-07T07:58:01;4.4;65.8
79750;SHT31;69233;51.968;5.658;2024-01-07T08:00:30;4.4;65.9
79750;SHT31;69233;51.968;5.658;2024-01-07T08:02:58;4.4;65.6
79750;SHT31;69233;51.968;5.658;2024-01-07T08:05:27;4.4;66.5
79750;SHT31;69233;51.968;5.658;2024-01-07T08:07:56;4.4;65.3
79750;SHT31;69233;51.968;5.658;2024-01-07T08:10:24;4.4;65.4
79750;SHT31;69233;51.968;5.658;2024-01-07T08:12:55;4.4;65.1
79750;SHT31;69233;51.968;5.658;2024-01-07T08:15:23;4.4;66.2
79750;SHT31;69233;51.968;5.658;2024-01-07T08:17:52;4.4;65.4
79750;SHT31;69233;51.968;5.658;2024-01-07T08:20:21;4.4;65.3
79750;SHT31;69233;51.968;5.658;2024-01-07T08:22:49;4.4;65.5
79750;SHT31;69233;51.968;5.658;2024-01-07T08:25:18;4.4;64.8
79750;SHT31;69233;51.968;5.658;2024-01-07T08:27:46;4.3;65.6
79750;SHT31;69233;51.968;5.658;2024-01-07T08:30:15;4.3;64.8
79750;SHT31;69233;51.968;5.658;2024-01-07T08:32:44;4.3;65.0
79750;SHT31;69233;51.968;5.658;2024-01-07T08:35:12;4.3;64.2
79750;SHT31;69233;51.968;5.658;2024-01-07T08:37:41;4.3;64.4
79750;SHT31;69233;51.968;5.658;2024-01-07T08:40:11;4.3;64.5
79750;SHT31;69233;51.968;5.658;2024-01-07T08:42:42;4.3;64.2
79750;SHT31;69233;51.968;5.658;2024-01-07T08:45:11;4.3;65.1
79750;SHT31;69233;51.968;5.658;2024-01-07T08:47:40;4.3;65.9
79750;SHT31;69233;51.968;5.658;2024-01-07T08:50:09;4.3;64.5
79750;SHT31;69233;51.968;5.658;2024-01-07T08:52:39;4.2;63.9
79750;SHT31;69233;51.968;5.658;2024-01-07T08:55:08;4.2;65.0
79750;SHT31;69233;51.968;5.658;2024-01-07T08:57:37;4.2;65.9
79750;SHT31;69233;51.968;5.658;2024-01-07T09:00:06;4.2;65.5
79750;SHT31;69233;51.968;5.658;2024-01-07T09:02:36;4.2;65.0
79750;SHT31;69233;51.968;5.658;2024-01-07T09:05:07;4.2;64.8
79750;SHT31;69233;51.968;5.658;2024-01-07T09:07:35;4.2;64.7
79750;SHT31;69233;51.968;5.658;2024-01-07T09:10:04;4.2;65.1
79750;SHT31;69233;51.968;5.658;2024-01-07T09:12:36;4.2;65.4
79750;SHT31;69233;51.968;5.658;2024-01-07T09:15:06;4.2;65.5
79750;SHT31;69233;51.968;5.658;2024-01-07T09:17:37;4.2;64.4
79750;SHT31;69233;51.968;5.658;2024-01-07T09:20:08;4.2;63.4
79750;SHT31;69233;51.968;5.658;2024-01-07T09:22:37;4.2;63.8
79750;SHT31;69233;51.968;5.658;2024-01-07T09:25:07;4.2;64.4
79750;SHT31;69233;51.968;5.658;2024-01-07T09:27:37;4.1;64.6
79750;SHT31;69233;51.968;5.658;2024-01-07T09:30:06;4.1;64.7
79750;SHT31;69233;51.968;5.658;2024-01-07T09:32:37;4.1;64.5
79750;SHT31;69233;51.968;5.658;2024-01-07T09:35:06;4.1;64.7
79750;SHT31;69233;51.968;5.658;2024-01-07T09:37:35;4.1;63.2
79750;SHT31;69233;51.968;5.658;2024-01-07T09:40:04;4.1;63.8
79750;SHT31;69233;51.968;5.658;2024-01-07T09:42:33;4.1;62.9
79750;SHT31;69233;51.968;5.658;2024-01-07T09:45:03;4.1;64.6
79750;SHT31;69233;51.968;5.658;2024-01-07T09:47:32;4.1;64.0
79750;SHT31;69233;51.968;5.658;2024-01-07T09:50:01;4.1;63.9
79750;SHT31;69233;51.968;5.658;2024-01-07T09:52:30;4.1;64.6
79750;SHT31;69233;51.968;5.658;2024-01-07T09:55:02;4.1;64.0
79750;SHT31;69233;51.968;5.658;2024-01-07T09:57:33;4.1;64.4
79750;SHT31;69233;51.968;5.658;2024-01-07T10:00:02;4.1;64.5
79750;SHT31;69233;51.968;5.658;2024-01-07T10:02:32;4.1;64.4
79750;SHT31;69233;51.968;5.658;2024-01-07T10:05:01;4.1;64.0
79750;SHT31;69233;51.968;5.658;2024-01-07T10:07:30;4.1;65.5
79750;SHT31;69233;51.968;5.658;2024-01-07T10:10:14;4.1;65.3
79750;SHT31;69233;51.968;5.658;2024-01-07T10:12:46;4.2;65.1
79750;SHT31;69233;51.968;5.658;2024-01-07T10:15:15;4.2;64.2
79750;SHT31;69233;51.968;5.658;2024-01-07T10:17:43;4.2;64.9
79750;SHT31;69233;51.968;5.658;2024-01-07T10:20:13;4.2;64.2
79750;SHT31;69233;51.968;5.658;2024-01-07T10:22:46;4.2;61.7
79750;SHT31;69233;51.968;5.658;2024-01-07T10:25:15;4.2;62.0
79750;SHT31;69233;51.968;5.658;2024-01-07T10:27:46;4.2;62.0
79750;SHT31;69233;51.968;5.658;2024-01-07T10:30:15;4.2;62.3
79750;SHT31;69233;51.968;5.658;2024-01-07T10:32:46;4.2;62.9
79750;SHT31;69233;51.968;5.658;2024-01-07T10:35:18;4.2;63.0
79750;SHT31;69233;51.968;5.658;2024-01-07T10:37:50;4.2;60.9
79750;SHT31;69233;51.968;5.658;2024-01-07T10:40:18;4.2;61.8
79750;SHT31;69233;51.968;5.658;2024-01-07T10:42:48;4.2;63.8
79750;SHT31;69233;51.968;5.658;2024-01-07T10:45:17;4.2;62.2
79750;SHT31;69233;51.968;5.658;2024-01-07T10:47:49;4.2;61.3
79750;SHT31;69233;51.968;5.658;2024-01-07T10:50:19;4.2;61.3
79750;SHT31;69233;51.968;5.658;2024-01-07T10:53:01;4.2;60.1
79750;SHT31;69233;51.968;5.658;2024-01-07T10:55:34;4.2;60.5
79750;SHT31;69233;51.968;5.658;2024-01-07T10:58:05;4.2;61.9
79750;SHT31;69233;51.968;5.658;2024-01-07T11:00:34;4.2;60.3
79750;SHT31;69233;51.968;5.658;2024-01-07T11:03:09;4.2;60.6
79750;SHT31;69233;51.968;5.658;2024-01-07T11:05:42;4.2;61.0
79750;SHT31;69233;51.968;5.658;2024-01-07T11:08:21;4.2;61.9
79750;SHT31;69233;51.968;5.658;2024-01-07T11:11:01;4.2;62.2
79750;SHT31;69233;51.968;5.658;2024-01-07T11:13:36;4.2;61.7
79750;SHT31;69233;51.968;5.658;2024-01-07T11:16:07;4.2;60.7
79750;SHT31;69233;51.968;5.658;2024-01-07T11:18:40;4.3;61.8
79750;SHT31;69233;51.968;5.658;2024-01-07T11:21:22;4.3;60.6
79750;SHT31;69233;51.968;5.658;2024-01-07T11:23:52;4.3;61.6
79750;SHT31;69233;51.968;5.658;2024-01-07T11:26:22;4.3;62.0
79750;SHT31;69233;51.968;5.658;2024-01-07T11:28:52;4.4;61.1
79750;SHT31;69233;51.968;5.658;2024-01-07T11:31:44;4.4;60.4
79750;SHT31;69233;51.968;5.658;2024-01-07T11:34:38;4.4;59.8
79750;SHT31;69233;51.968;5.658;2024-01-07T11:37:10;4.4;60.4
79750;SHT31;69233;51.968;5.658;2024-01-07T11:39:42;4.4;59.7
79750;SHT31;69233;51.968;5.658;2024-01-07T11:42:13;4.5;60.5
79750;SHT31;69233;51.968;5.658;2024-01-07T11:44:47;4.5;59.7
79750;SHT31;69233;51.968;5.658;2024-01-07T11:47:18;4.5;60.0
79750;SHT31;69233;51.968;5.658;2024-01-07T11:49:48;4.5;59.5
79750;SHT31;69233;51.968;5.658;2024-01-07T11:52:19;4.5;58.7
79750;SHT31;69233;51.968;5.658;2024-01-07T11:54:48;4.5;58.3
79750;SHT31;69233;51.968;5.658;2024-01-07T11:57:17;4.5;57.3
79750;SHT31;69233;51.968;5.658;2024-01-07T11:59:46;4.4;59.0
79750;SHT31;69233;51.968;5.658;2024-01-07T12:02:14;4.4;59.5
79750;SHT31;69233;51.968;5.658;2024-01-07T12:04:43;4.4;58.0
79750;SHT31;69233;51.968;5.658;2024-01-07T12:07:12;4.4;58.6
79750;SHT31;69233;51.968;5.658;2024-01-07T12:09:41;4.4;57.8
79750;SHT31;69233;51.968;5.658;2024-01-07T12:12:10;4.3;57.9
79750;SHT31;69233;51.968;5.658;2024-01-07T12:14:38;4.3;58.6
79750;SHT31;69233;51.968;5.658;2024-01-07T12:17:08;4.3;57.7
79750;SHT31;69233;51.968;5.658;2024-01-07T12:19:36;4.3;56.9
79750;SHT31;69233;51.968;5.658;2024-01-07T12:22:06;4.4;59.3
79750;SHT31;69233;51.968;5.658;2024-01-07T12:24:34;4.4;58.2
79750;SHT31;69233;51.968;5.658;2024-01-07T12:27:06;4.5;57.8
79750;SHT31;69233;51.968;5.658;2024-01-07T12:29:36;4.7;55.4
79750;SHT31;69233;51.968;5.658;2024-01-07T12:32:07;4.8;56.0
79750;SHT31;69233;51.968;5.658;2024-01-07T12:34:38;5.0;54.8
79750;SHT31;69233;51.968;5.658;2024-01-07T12:37:14;5.1;54.9
79750;SHT31;69233;51.968;5.658;2024-01-07T12:39:43;5.1;54.8
79750;SHT31;69233;51.968;5.658;2024-01-07T12:42:11;5.2;53.2
79750;SHT31;69233;51.968;5.658;2024-01-07T12:44:40;5.2;55.1
79750;SHT31;69233;51.968;5.658;2024-01-07T12:47:08;5.3;54.7
79750;SHT31;69233;51.968;5.658;2024-01-07T12:49:37;5.4;54.0
79750;SHT31;69233;51.968;5.658;2024-01-07T12:52:06;5.4;54.3
79750;SHT31;69233;51.968;5.658;2024-01-07T12:54:35;5.5;53.6
79750;SHT31;69233;51.968;5.658;2024-01-07T12:57:04;5.6;53.9
79750;SHT31;69233;51.968;5.658;2024-01-07T12:59:33;5.6;52.5
79750;SHT31;69233;51.968;5.658;2024-01-07T13:02:02;5.6;53.1
79750;SHT31;69233;51.968;5.658;2024-01-07T13:04:31;5.6;52.1
79750;SHT31;69233;51.968;5.658;2024-01-07T13:07:00;5.6;53.5
79750;SHT31;69233;51.968;5.658;2024-01-07T13:09:28;5.6;52.1
79750;SHT31;69233;51.968;5.658;2024-01-07T13:11:57;5.6;51.4
79750;SHT31;69233;51.968;5.658;2024-01-07T13:14:26;5.6;52.8
79750;SHT31;69233;51.968;5.658;2024-01-07T13:16:54;5.5;52.9
79750;SHT31;69233;51.968;5.658;2024-01-07T13:19:23;5.5;51.7
79750;SHT31;69233;51.968;5.658;2024-01-07T13:21:53;5.4;52.4
79750;SHT31;69233;51.968;5.658;2024-01-07T13:24:25;5.3;53.0
79750;SHT31;69233;51.968;5.658;2024-01-07T13:26:54;5.2;53.9
79750;SHT31;69233;51.968;5.658;2024-01-07T13:29:23;5.1;53.3
79750;SHT31;69233;51.968;5.658;2024-01-07T13:31:51;5.1;52.6
79750;SHT31;69233;51.968;5.658;2024-01-07T13:34:20;5.0;52.3
79750;SHT31;69233;51.968;5.658;2024-01-07T13:36:48;4.9;52.5
79750;SHT31;69233;51.968;5.658;2024-01-07T13:39:19;4.8;52.6
79750;SHT31;69233;51.968;5.658;2024-01-07T13:41:48;4.8;54.0
79750;SHT31;69233;51.968;5.658;2024-01-07T13:44:17;4.7;53.0
79750;SHT31;69233;51.968;5.658;2024-01-07T13:46:47;4.7;53.2
79750;SHT31;69233;51.968;5.658;2024-01-07T13:49:18;4.6;53.2
79750;SHT31;69233;51.968;5.658;2024-01-07T13:51:47;4.6;54.6
79750;SHT31;69233;51.968;5.658;2024-01-07T13:54:15;4.5;53.5
79750;SHT31;69233;51.968;5.658;2024-01-07T13:56:44;4.5;54.4
79750;SHT31;69233;51.968;5.658;2024-01-07T13:59:15;4.4;53.4
79750;SHT31;69233;51.968;5.658;2024-01-07T14:01:45;4.4;53.0
79750;SHT31;69233;51.968;5.658;2024-01-07T14:04:15;4.4;54.3
79750;SHT31;69233;51.968;5.658;2024-01-07T14:06:44;4.3;54.8
79750;SHT31;69233;51.968;5.658;2024-01-07T14:09:13;4.3;54.0
79750;SHT31;69233;51.968;5.658;2024-01-07T14:11:41;4.3;52.3
79750;SHT31;69233;51.968;5.658;2024-01-07T14:14:10;4.2;54.7
79750;SHT31;69233;51.968;5.658;2024-01-07T14:16:39;4.2;54.6
79750;SHT31;69233;51.968;5.658;2024-01-07T14:19:07;4.2;53.8
79750;SHT31;69233;51.968;5.658;2024-01-07T14:21:38;4.2;54.6
79750;SHT31;69233;51.968;5.658;2024-01-07T14:24:07;4.1;54.4
79750;SHT31;69233;51.968;5.658;2024-01-07T14:26:35;4.1;54.2
79750;SHT31;69233;51.968;5.658;2024-01-07T14:29:05;4.0;54.7
79750;SHT31;69233;51.968;5.658;2024-01-07T14:31:33;4.0;55.0
79750;SHT31;69233;51.968;5.658;2024-01-07T14:34:02;4.0;54.0
79750;SHT31;69233;51.968;5.658;2024-01-07T14:36:31;4.0;54.5
79750;SHT31;69233;51.968;5.658;2024-01-07T14:39:01;3.9;54.2
79750;SHT31;69233;51.968;5.658;2024-01-07T14:41:31;3.9;53.9
79750;SHT31;69233;51.968;5.658;2024-01-07T14:44:01;3.9;54.7
79750;SHT31;69233;51.968;5.658;2024-01-07T14:46:30;3.9;54.5
79750;SHT31;69233;51.968;5.658;2024-01-07T14:49:00;3.9;55.5
79750;SHT31;69233;51.968;5.658;2024-01-07T14:51:30;3.9;54.6
79750;SHT31;69233;51.968;5.658;2024-01-07T14:53:59;3.9;54.6
79750;SHT31;69233;51.968;5.658;2024-01-07T14:56:29;3.8;53.7
79750;SHT31;69233;51.968;5.658;2024-01-07T14:58:58;3.8;54.5
79750;SHT31;69233;51.968;5.658;2024-01-07T15:01:27;3.8;54.5
79750;SHT31;69233;51.968;5.658;2024-01-07T15:03:55;3.8;55.5
79750;SHT31;69233;51.968;5.658;2024-01-07T15:06:24;3.8;54.1
79750;SHT31;69233;51.968;5.658;2024-01-07T15:08:53;3.8;55.5
79750;SHT31;69233;51.968;5.658;2024-01-07T15:11:21;3.8;55.8
79750;SHT31;69233;51.968;5.658;2024-01-07T15:13:50;3.8;55.7
79750;SHT31;69233;51.968;5.658;2024-01-07T15:16:19;3.8;53.6
79750;SHT31;69233;51.968;5.658;2024-01-07T15:18:48;3.7;57.0
79750;SHT31;69233;51.968;5.658;2024-01-07T15:21:17;3.7;56.0
79750;SHT31;69233;51.968;5.658;2024-01-07T15:23:45;3.7;55.5
79750;SHT31;69233;51.968;5.658;2024-01-07T15:26:14;3.7;56.3
79750;SHT31;69233;51.968;5.658;2024-01-07T15:28:42;3.7;56.2
79750;SHT31;69233;51.968;5.658;2024-01-07T15:31:11;3.7;55.3
79750;SHT31;69233;51.968;5.658;2024-01-07T15:33:39;3.7;55.4
79750;SHT31;69233;51.968;5.658;2024-01-07T15:36:10;3.7;55.0
79750;SHT31;69233;51.968;5.658;2024-01-07T15:38:39;3.7;55.8
79750;SHT31;69233;51.968;5.658;2024-01-07T15:41:07;3.7;55.6
79750;SHT31;69233;51.968;5.658;2024-01-07T15:43:36;3.7;54.8
79750;SHT31;69233;51.968;5.658;2024-01-07T15:46:05;3.7;55.9
79750;SHT31;69233;51.968;5.658;2024-01-07T15:48:34;3.6;57.2
79750;SHT31;69233;51.968;5.658;2024-01-07T15:51:03;3.6;55.1
79750;SHT31;69233;51.968;5.658;2024-01-07T15:53:32;3.6;56.8
79750;SHT31;69233;51.968;5.658;2024-01-07T15:56:02;3.6;56.5
79750;SHT31;69233;51.968;5.658;2024-01-07T15:58:32;3.5;56.4
79750;SHT31;69233;51.968;5.658;2024-01-07T16:01:03;3.5;58.3
79750;SHT31;69233;51.968;5.658;2024-01-07T16:03:32;3.5;57.6
79750;SHT31;69233;51.968;5.658;2024-01-07T16:06:01;3.5;57.8
79750;SHT31;69233;51.968;5.658;2024-01-07T16:08:29;3.5;58.8
79750;SHT31;69233;51.968;5.658;2024-01-07T16:10:59;3.5;57.1
79750;SHT31;69233;51.968;5.658;2024-01-07T16:13:31;3.4;56.5
79750;SHT31;69233;51.968;5.658;2024-01-07T16:16:00;3.4;57.5
79750;SHT31;69233;51.968;5.658;2024-01-07T16:18:28;3.4;56.0
79750;SHT31;69233;51.968;5.658;2024-01-07T16:20:58;3.4;57.7
79750;SHT31;69233;51.968;5.658;2024-01-07T16:23:27;3.4;58.6
79750;SHT31;69233;51.968;5.658;2024-01-07T16:25:57;3.4;58.0
79750;SHT31;69233;51.968;5.658;2024-01-07T16:28:27;3.4;57.1
79750;SHT31;69233;51.968;5.658;2024-01-07T16:30:56;3.4;57.8